sensor_id;sensor_type;location;lat;lon;timestamp;P1;durP1;ratioP1;P2;durP2;ratioP2
40286;SDS011;25998;46.604;13.610;2023-11-21T00:01:26;9.98;;;5.80;;
40286;SDS011;25998;46.604;13.610;2023-11-21T00:04:37;8.63;;;6.50;;
40286;SDS011;25998;46.604;13.610;2023-11-21T00:07:48;7.68;;;5.38;;
40286;SDS011;25998;46.604;13.610;2023-11-21T00:10:59;8.25;;;6.05;;
40286;SDS011;25998;46.604;13.610;2023-11-21T00:14:11;8.13;;;5.22;;
40286;SDS011;25998;46.604;13.610;2023-11-21T00:17:22;8.88;;;5.18;;
40286;SDS011;25998;46.604;13.610;2023-11-21T00:20:32;7.32;;;4.95;;
40286;SDS011;25998;46.604;13.610;2023-11-21T00:23:43;6.05;;;4.60;;
40286;SDS011;25998;46.604;13.610;2023-11-21T00:26:54;6.07;;;4.50;;
40286;SDS011;25998;46.604;13.610;2023-11-21T00:30:06;6.28;;;4.30;;
40286;SDS011;25998;46.604;13.610;2023-11-21T00:33:18;7.35;;;4.35;;
40286;SDS011;25998;46.604;13.610;2023-11-21T00:36:29;8.02;;;4.63;;
40286;SDS011;25998;46.604;13.610;2023-11-21T00:39:40;10.77;;;4.85;;
40286;SDS011;25998;46.604;13.610;2023-11-21T00:42:51;8.00;;;4.93;;
40286;SDS011;25998;46.604;13.610;2023-11-21T00:46:04;8.32;;;4.80;;
40286;SDS011;25998;46.604;13.610;2023-11-21T00:49:17;5.80;;;4.60;;
40286;SDS011;25998;46.604;13.610;2023-11-21T00:52:28;7.10;;;4.72;;
40286;SDS011;25998;46.604;13.610;2023-11-21T00:55:39;6.22;;;4.78;;
40286;SDS011;25998;46.604;13.610;2023-11-21T00:58:50;7.55;;;5.20;;
40286;SDS011;25998;46.604;13.610;2023-11-21T01:02:02;7.75;;;5.38;;
40286;SDS011;25998;46.604;13.610;2023-11-21T01:05:14;7.15;;;5.65;;
40286;SDS011;25998;46.604;13.610;2023-11-21T01:08:25;7.53;;;5.95;;
40286;SDS011;25998;46.604;13.610;2023-11-21T01:11:37;7.60;;;5.63;;
40286;SDS011;25998;46.604;13.610;2023-11-21T01:14:47;6.72;;;5.63;;
40286;SDS011;25998;46.604;13.610;2023-11-21T01:17:58;7.70;;;5.20;;
40286;SDS011;25998;46.604;13.610;2023-11-21T01:21:09;7.75;;;5.40;;
40286;SDS011;25998;46.604;13.610;2023-11-21T01:24:20;7.72;;;4.97;;
40286;SDS011;25998;46.604;13.610;2023-11-21T01:27:31;8.00;;;5.05;;
40286;SDS011;25998;46.604;13.610;2023-11-21T01:30:45;7.13;;;5.28;;
40286;SDS011;25998;46.604;13.610;2023-11-21T01:33:56;8.23;;;4.88;;
40286;SDS011;25998;46.604;13.610;2023-11-21T01:37:07;6.75;;;5.00;;
40286;SDS011;25998;46.604;13.610;2023-11-21T01:40:19;6.05;;;4.78;;
40286;SDS011;25998;46.604;13.610;2023-11-21T01:43:31;5.78;;;4.82;;
40286;SDS011;25998;46.604;13.610;2023-11-21T01:46:42;5.50;;;4.30;;
40286;SDS011;25998;46.604;13.610;2023-11-21T01:49:53;7.72;;;5.13;;
40286;SDS011;25998;46.604;13.610;2023-11-21T01:53:07;5.55;;;3.78;;
40286;SDS011;25998;46.604;13.610;2023-11-21T01:56:18;5.20;;;3.22;;
40286;SDS011;25998;46.604;13.610;2023-11-21T01:59:34;7.28;;;4.30;;
40286;SDS011;25998;46.604;13.610;2023-11-21T02:02:47;5.88;;;4.00;;
40286;SDS011;25998;46.604;13.610;2023-11-21T02:05:58;5.93;;;4.28;;
40286;SDS011;25998;46.604;13.610;2023-11-21T02:09:09;8.05;;;4.15;;
40286;SDS011;25998;46.604;13.610;2023-11-21T02:12:22;5.28;;;3.85;;
40286;SDS011;25998;46.604;13.610;2023-11-21T02:15:37;6.13;;;4.15;;
40286;SDS011;25998;46.604;13.610;2023-11-21T02:18:48;115.90;;;11.52;;
40286;SDS011;25998;46.604;13.610;2023-11-21T02:22:01;6.13;;;4.43;;
40286;SDS011;25998;46.604;13.610;2023-11-21T02:25:13;6.85;;;5.13;;
40286;SDS011;25998;46.604;13.610;2023-11-21T02:28:26;5.45;;;4.93;;
40286;SDS011;25998;46.604;13.610;2023-11-21T02:31:37;8.00;;;5.32;;
40286;SDS011;25998;46.604;13.610;2023-11-21T02:34:55;5.82;;;4.50;;
40286;SDS011;25998;46.604;13.610;2023-11-21T02:38:10;6.20;;;4.45;;
40286;SDS011;25998;46.604;13.610;2023-11-21T02:41:21;7.97;;;5.05;;
40286;SDS011;25998;46.604;13.610;2023-11-21T02:44:32;7.70;;;4.32;;
40286;SDS011;25998;46.604;13.610;2023-11-21T02:47:43;6.20;;;4.90;;
40286;SDS011;25998;46.604;13.610;2023-11-21T02:50:58;11.68;;;6.20;;
40286;SDS011;25998;46.604;13.610;2023-11-21T02:54:09;7.53;;;4.97;;
40286;SDS011;25998;46.604;13.610;2023-11-21T02:57:20;6.32;;;4.88;;
40286;SDS011;25998;46.604;13.610;2023-11-21T03:00:31;5.18;;;4.10;;
40286;SDS011;25998;46.604;13.610;2023-11-21T03:03:41;5.93;;;4.07;;
40286;SDS011;25998;46.604;13.610;2023-11-21T03:06:52;7.95;;;5.07;;
40286;SDS011;25998;46.604;13.610;2023-11-21T03:10:04;8.55;;;5.40;;
40286;SDS011;25998;46.604;13.610;2023-11-21T03:13:15;6.40;;;4.38;;
40286;SDS011;25998;46.604;13.610;2023-11-21T03:16:26;6.65;;;4.57;;
40286;SDS011;25998;46.604;13.610;2023-11-21T03:19:37;5.50;;;4.43;;
40286;SDS011;25998;46.604;13.610;2023-11-21T03:22:48;7.68;;;4.68;;
40286;SDS011;25998;46.604;13.610;2023-11-21T03:25:59;7.65;;;4.93;;
40286;SDS011;25998;46.604;13.610;2023-11-21T03:29:10;8.55;;;5.20;;
40286;SDS011;25998;46.604;13.610;2023-11-21T03:32:24;5.38;;;4.32;;
40286;SDS011;25998;46.604;13.610;2023-11-21T03:35:35;6.68;;;4.40;;
40286;SDS011;25998;46.604;13.610;2023-11-21T03:38:47;7.05;;;4.75;;
40286;SDS011;25998;46.604;13.610;2023-11-21T03:41:59;6.25;;;4.80;;
40286;SDS011;25998;46.604;13.610;2023-11-21T03:45:10;10.05;;;5.28;;
40286;SDS011;25998;46.604;13.610;2023-11-21T03:48:22;243.65;;;19.13;;
40286;SDS011;25998;46.604;13.610;2023-11-21T03:51:33;77.57;;;8.25;;
40286;SDS011;25998;46.604;13.610;2023-11-21T03:54:44;10.80;;;5.68;;
40286;SDS011;25998;46.604;13.610;2023-11-21T03:57:55;6.25;;;5.20;;
40286;SDS011;25998;46.604;13.610;2023-11-21T04:01:07;11.60;;;5.95;;
40286;SDS011;25998;46.604;13.610;2023-11-21T04:04:17;5.88;;;4.60;;
40286;SDS011;25998;46.604;13.610;2023-11-21T04:07:29;7.20;;;6.05;;
40286;SDS011;25998;46.604;13.610;2023-11-21T04:10:40;6.80;;;4.80;;
40286;SDS011;25998;46.604;13.610;2023-11-21T04:13:52;7.40;;;5.47;;
40286;SDS011;25998;46.604;13.610;2023-11-21T04:17:03;9.93;;;5.18;;
40286;SDS011;25998;46.604;13.610;2023-11-21T04:20:14;7.03;;;4.93;;
40286;SDS011;25998;46.604;13.610;2023-11-21T04:23:25;8.60;;;5.13;;
40286;SDS011;25998;46.604;13.610;2023-11-21T04:26:36;5.95;;;4.13;;
40286;SDS011;25998;46.604;13.610;2023-11-21T04:29:47;6.03;;;4.30;;
40286;SDS011;25998;46.604;13.610;2023-11-21T04:32:58;5.65;;;4.30;;
40286;SDS011;25998;46.604;13.610;2023-11-21T04:36:09;6.95;;;4.55;;
40286;SDS011;25998;46.604;13.610;2023-11-21T04:39:20;6.05;;;4.60;;
40286;SDS011;25998;46.604;13.610;2023-11-21T04:42:31;6.05;;;4.28;;
40286;SDS011;25998;46.604;13.610;2023-11-21T04:45:44;5.53;;;4.53;;
40286;SDS011;25998;46.604;13.610;2023-11-21T04:48:54;8.05;;;4.38;;
40286;SDS011;25998;46.604;13.610;2023-11-21T04:52:05;5.65;;;4.35;;
40286;SDS011;25998;46.604;13.610;2023-11-21T04:55:17;6.97;;;4.55;;
40286;SDS011;25998;46.604;13.610;2023-11-21T04:58:28;7.63;;;3.95;;
40286;SDS011;25998;46.604;13.610;2023-11-21T05:01:39;828.55;;;66.72;;
40286;SDS011;25998;46.604;13.610;2023-11-21T05:04:50;732.85;;;52.15;;
40286;SDS011;25998;46.604;13.610;2023-11-21T05:08:01;880.85;;;70.35;;
40286;SDS011;25998;46.604;13.610;2023-11-21T05:11:12;88.60;;;10.05;;
40286;SDS011;25998;46.604;13.610;2023-11-21T05:14:35;96.28;;;9.88;;
40286;SDS011;25998;46.604;13.610;2023-11-21T05:17:46;32.30;;;7.28;;
40286;SDS011;25998;46.604;13.610;2023-11-21T05:21:00;21.50;;;5.90;;
40286;SDS011;25998;46.604;13.610;2023-11-21T05:24:13;6.65;;;4.95;;
40286;SDS011;25998;46.604;13.610;2023-11-21T05:27:23;7.10;;;4.82;;
40286;SDS011;25998;46.604;13.610;2023-11-21T05:30:34;5.82;;;4.60;;
40286;SDS011;25998;46.604;13.610;2023-11-21T05:33:45;5.43;;;4.45;;
40286;SDS011;25998;46.604;13.610;2023-11-21T05:36:59;4.43;;;3.75;;
40286;SDS011;25998;46.604;13.610;2023-11-21T05:40:10;7.75;;;4.47;;
40286;SDS011;25998;46.604;13.610;2023-11-21T05:43:22;5.30;;;4.13;;
40286;SDS011;25998;46.604;13.610;2023-11-21T05:46:33;9.48;;;5.32;;
40286;SDS011;25998;46.604;13.610;2023-11-21T05:49:44;6.97;;;5.40;;
40286;SDS011;25998;46.604;13.610;2023-11-21T05:53:00;5.75;;;4.35;;
40286;SDS011;25998;46.604;13.610;2023-11-21T05:56:11;5.18;;;4.35;;
40286;SDS011;25998;46.604;13.610;2023-11-21T05:59:21;5.55;;;4.13;;
40286;SDS011;25998;46.604;13.610;2023-11-21T06:02:32;6.53;;;4.35;;
40286;SDS011;25998;46.604;13.610;2023-11-21T06:05:43;5.60;;;4.22;;
40286;SDS011;25998;46.604;13.610;2023-11-21T06:08:54;6.97;;;5.70;;
40286;SDS011;25998;46.604;13.610;2023-11-21T06:12:06;6.93;;;5.43;;
40286;SDS011;25998;46.604;13.610;2023-11-21T06:15:17;6.88;;;5.63;;
40286;SDS011;25998;46.604;13.610;2023-11-21T06:18:30;8.32;;;6.72;;
40286;SDS011;25998;46.604;13.610;2023-11-21T06:21:44;10.02;;;7.75;;
40286;SDS011;25998;46.604;13.610;2023-11-21T06:24:57;10.15;;;8.80;;
40286;SDS011;25998;46.604;13.610;2023-11-21T06:28:08;10.07;;;8.20;;
40286;SDS011;25998;46.604;13.610;2023-11-21T06:31:21;9.38;;;8.27;;
40286;SDS011;25998;46.604;13.610;2023-11-21T06:34:33;20.88;;;9.80;;
40286;SDS011;25998;46.604;13.610;2023-11-21T06:37:44;8.82;;;7.35;;
40286;SDS011;25998;46.604;13.610;2023-11-21T06:40:58;14.43;;;10.43;;
40286;SDS011;25998;46.604;13.610;2023-11-21T06:44:12;14.25;;;10.70;;
40286;SDS011;25998;46.604;13.610;2023-11-21T06:47:23;10.70;;;9.60;;
40286;SDS011;25998;46.604;13.610;2023-11-21T06:50:42;11.18;;;9.45;;
40286;SDS011;25998;46.604;13.610;2023-11-21T06:53:52;9.77;;;8.48;;
40286;SDS011;25998;46.604;13.610;2023-11-21T06:57:03;9.50;;;8.50;;
40286;SDS011;25998;46.604;13.610;2023-11-21T07:00:17;9.77;;;8.52;;
40286;SDS011;25998;46.604;13.610;2023-11-21T07:03:29;11.55;;;9.63;;
40286;SDS011;25998;46.604;13.610;2023-11-21T07:06:39;19.48;;;12.45;;
40286;SDS011;25998;46.604;13.610;2023-11-21T07:09:53;8.82;;;7.93;;
40286;SDS011;25998;46.604;13.610;2023-11-21T07:13:07;13.82;;;12.02;;
40286;SDS011;25998;46.604;13.610;2023-11-21T07:16:22;15.68;;;13.13;;
40286;SDS011;25998;46.604;13.610;2023-11-21T07:19:33;15.20;;;12.60;;
40286;SDS011;25998;46.604;13.610;2023-11-21T07:22:44;18.05;;;14.63;;
40286;SDS011;25998;46.604;13.610;2023-11-21T07:25:55;17.92;;;13.82;;
40286;SDS011;25998;46.604;13.610;2023-11-21T07:29:06;16.88;;;13.82;;
40286;SDS011;25998;46.604;13.610;2023-11-21T07:32:17;15.52;;;13.57;;
40286;SDS011;25998;46.604;13.610;2023-11-21T07:35:28;17.15;;;12.18;;
40286;SDS011;25998;46.604;13.610;2023-11-21T07:38:39;16.40;;;13.32;;
40286;SDS011;25998;46.604;13.610;2023-11-21T07:41:52;17.17;;;12.98;;
40286;SDS011;25998;46.604;13.610;2023-11-21T07:45:05;15.40;;;12.02;;
40286;SDS011;25998;46.604;13.610;2023-11-21T07:48:17;14.70;;;11.88;;
40286;SDS011;25998;46.604;13.610;2023-11-21T07:51:27;17.65;;;12.60;;
40286;SDS011;25998;46.604;13.610;2023-11-21T07:54:38;18.88;;;14.52;;
40286;SDS011;25998;46.604;13.610;2023-11-21T07:57:49;23.60;;;18.95;;
40286;SDS011;25998;46.604;13.610;2023-11-21T08:01:00;18.98;;;14.23;;
40286;SDS011;25998;46.604;13.610;2023-11-21T08:04:12;19.27;;;14.02;;
40286;SDS011;25998;46.604;13.610;2023-11-21T08:07:23;17.92;;;13.80;;
40286;SDS011;25998;46.604;13.610;2023-11-21T08:10:33;20.10;;;13.23;;
40286;SDS011;25998;46.604;13.610;2023-11-21T08:13:48;14.52;;;12.23;;
40286;SDS011;25998;46.604;13.610;2023-11-21T08:16:59;17.75;;;13.25;;
40286;SDS011;25998;46.604;13.610;2023-11-21T08:20:10;16.45;;;13.05;;
40286;SDS011;25998;46.604;13.610;2023-11-21T08:23:22;15.32;;;12.43;;
40286;SDS011;25998;46.604;13.610;2023-11-21T08:26:35;15.38;;;12.32;;
40286;SDS011;25998;46.604;13.610;2023-11-21T08:29:47;16.00;;;12.93;;
40286;SDS011;25998;46.604;13.610;2023-11-21T08:33:02;14.88;;;12.10;;
40286;SDS011;25998;46.604;13.610;2023-11-21T08:36:13;14.15;;;11.68;;
40286;SDS011;25998;46.604;13.610;2023-11-21T08:39:25;16.15;;;11.85;;
40286;SDS011;25998;46.604;13.610;2023-11-21T08:42:37;14.70;;;11.52;;
40286;SDS011;25998;46.604;13.610;2023-11-21T08:45:50;16.13;;;12.93;;
40286;SDS011;25998;46.604;13.610;2023-11-21T08:49:03;13.68;;;11.25;;
40286;SDS011;25998;46.604;13.610;2023-11-21T08:52:14;19.40;;;11.88;;
40286;SDS011;25998;46.604;13.610;2023-11-21T08:55:25;13.50;;;12.10;;
40286;SDS011;25998;46.604;13.610;2023-11-21T08:58:36;15.75;;;12.18;;
40286;SDS011;25998;46.604;13.610;2023-11-21T09:01:47;12.75;;;11.23;;
40286;SDS011;25998;46.604;13.610;2023-11-21T09:04:58;14.60;;;12.23;;
40286;SDS011;25998;46.604;13.610;2023-11-21T09:08:09;11.10;;;9.85;;
40286;SDS011;25998;46.604;13.610;2023-11-21T09:11:20;11.32;;;9.75;;
40286;SDS011;25998;46.604;13.610;2023-11-21T09:14:31;15.15;;;11.95;;
40286;SDS011;25998;46.604;13.610;2023-11-21T09:17:44;13.77;;;12.10;;
40286;SDS011;25998;46.604;13.610;2023-11-21T09:20:57;14.65;;;12.23;;
40286;SDS011;25998;46.604;13.610;2023-11-21T09:24:08;19.67;;;14.52;;
40286;SDS011;25998;46.604;13.610;2023-11-21T09:27:19;14.65;;;11.18;;
40286;SDS011;25998;46.604;13.610;2023-11-21T09:30:33;10.75;;;9.45;;
40286;SDS011;25998;46.604;13.610;2023-11-21T09:33:46;13.77;;;10.10;;
40286;SDS011;25998;46.604;13.610;2023-11-21T09:36:58;10.75;;;8.85;;
40286;SDS011;25998;46.604;13.610;2023-11-21T09:40:10;13.60;;;11.02;;
40286;SDS011;25998;46.604;13.610;2023-11-21T09:43:23;13.48;;;11.50;;
40286;SDS011;25998;46.604;13.610;2023-11-21T09:46:37;13.70;;;10.80;;
40286;SDS011;25998;46.604;13.610;2023-11-21T09:49:54;18.25;;;12.73;;
40286;SDS011;25998;46.604;13.610;2023-11-21T09:53:13;13.82;;;11.00;;
40286;SDS011;25998;46.604;13.610;2023-11-21T09:56:28;11.63;;;9.57;;
40286;SDS011;25998;46.604;13.610;2023-11-21T09:59:40;13.55;;;11.45;;
40286;SDS011;25998;46.604;13.610;2023-11-21T10:02:51;13.57;;;11.05;;
40286;SDS011;25998;46.604;13.610;2023-11-21T10:06:06;10.23;;;8.85;;
40286;SDS011;25998;46.604;13.610;2023-11-21T10:09:19;22.85;;;17.00;;
40286;SDS011;25998;46.604;13.610;2023-11-21T10:12:35;202.38;;;26.17;;
40286;SDS011;25998;46.604;13.610;2023-11-21T10:15:50;644.10;;;57.85;;
40286;SDS011;25998;46.604;13.610;2023-11-21T10:19:03;176.38;;;22.20;;
40286;SDS011;25998;46.604;13.610;2023-11-21T10:22:16;450.77;;;38.67;;
40286;SDS011;25998;46.604;13.610;2023-11-21T10:25:30;433.05;;;40.50;;
40286;SDS011;25998;46.604;13.610;2023-11-21T10:28:41;48.40;;;14.32;;
40286;SDS011;25998;46.604;13.610;2023-11-21T10:32:10;105.93;;;19.63;;
40286;SDS011;25998;46.604;13.610;2023-11-21T10:35:25;57.65;;;16.48;;
40286;SDS011;25998;46.604;13.610;2023-11-21T10:38:50;22.85;;;13.55;;
40286;SDS011;25998;46.604;13.610;2023-11-21T10:42:03;12.00;;;10.60;;
40286;SDS011;25998;46.604;13.610;2023-11-21T10:45:14;14.73;;;12.90;;
40286;SDS011;25998;46.604;13.610;2023-11-21T10:48:28;13.93;;;12.05;;
40286;SDS011;25998;46.604;13.610;2023-11-21T10:51:40;13.70;;;11.75;;
40286;SDS011;25998;46.604;13.610;2023-11-21T10:54:54;11.48;;;10.25;;
40286;SDS011;25998;46.604;13.610;2023-11-21T10:58:05;12.82;;;11.40;;
40286;SDS011;25998;46.604;13.610;2023-11-21T11:01:17;11.38;;;10.18;;
40286;SDS011;25998;46.604;13.610;2023-11-21T11:04:31;12.50;;;11.27;;
40286;SDS011;25998;46.604;13.610;2023-11-21T11:07:43;12.98;;;11.63;;
40286;SDS011;25998;46.604;13.610;2023-11-21T11:10:55;15.02;;;12.70;;
40286;SDS011;25998;46.604;13.610;2023-11-21T11:14:12;394.50;;;39.70;;
40286;SDS011;25998;46.604;13.610;2023-11-21T11:17:26;321.88;;;41.95;;
40286;SDS011;25998;46.604;13.610;2023-11-21T11:20:40;466.98;;;43.40;;
40286;SDS011;25998;46.604;13.610;2023-11-21T11:31:23;497.42;;;40.05;;
40286;SDS011;25998;46.604;13.610;2023-11-21T11:34:57;132.18;;;20.60;;
40286;SDS011;25998;46.604;13.610;2023-11-21T11:38:21;372.27;;;36.83;;
40286;SDS011;25998;46.604;13.610;2023-11-21T11:41:33;30.77;;;18.10;;
40286;SDS011;25998;46.604;13.610;2023-11-21T11:44:46;123.20;;;23.38;;
40286;SDS011;25998;46.604;13.610;2023-11-21T11:48:06;164.23;;;26.33;;
40286;SDS011;25998;46.604;13.610;2023-11-21T11:51:17;209.30;;;29.17;;
40286;SDS011;25998;46.604;13.610;2023-11-21T11:54:36;62.78;;;16.50;;
40286;SDS011;25998;46.604;13.610;2023-11-21T11:57:47;66.72;;;17.95;;
40286;SDS011;25998;46.604;13.610;2023-11-21T12:01:06;135.95;;;24.88;;
40286;SDS011;25998;46.604;13.610;2023-11-21T12:11:00;158.38;;;24.30;;
40286;SDS011;25998;46.604;13.610;2023-11-21T12:14:12;96.28;;;19.00;;
40286;SDS011;25998;46.604;13.610;2023-11-21T12:17:24;69.82;;;17.25;;
40286;SDS011;25998;46.604;13.610;2023-11-21T12:20:35;191.88;;;25.30;;
40286;SDS011;25998;46.604;13.610;2023-11-21T12:23:48;145.10;;;26.80;;
40286;SDS011;25998;46.604;13.610;2023-11-21T12:26:59;59.03;;;18.08;;
40286;SDS011;25998;46.604;13.610;2023-11-21T12:30:13;26.02;;;15.80;;
40286;SDS011;25998;46.604;13.610;2023-11-21T12:33:25;17.27;;;15.48;;
40286;SDS011;25998;46.604;13.610;2023-11-21T12:36:39;154.25;;;25.50;;
40286;SDS011;25998;46.604;13.610;2023-11-21T12:39:50;162.70;;;24.05;;
40286;SDS011;25998;46.604;13.610;2023-11-21T12:43:01;166.63;;;24.27;;
40286;SDS011;25998;46.604;13.610;2023-11-21T12:46:14;287.13;;;30.67;;
40286;SDS011;25998;46.604;13.610;2023-11-21T12:49:27;230.85;;;25.00;;
40286;SDS011;25998;46.604;13.610;2023-11-21T12:52:38;221.85;;;26.67;;
40286;SDS011;25998;46.604;13.610;2023-11-21T12:55:59;294.73;;;29.13;;
40286;SDS011;25998;46.604;13.610;2023-11-21T12:59:11;384.48;;;35.00;;
40286;SDS011;25998;46.604;13.610;2023-11-21T13:02:27;127.75;;;19.73;;
40286;SDS011;25998;46.604;13.610;2023-11-21T13:09:03;109.53;;;19.92;;
40286;SDS011;25998;46.604;13.610;2023-11-21T13:12:24;261.05;;;27.15;;
40286;SDS011;25998;46.604;13.610;2023-11-21T13:15:40;22.15;;;13.05;;
40286;SDS011;25998;46.604;13.610;2023-11-21T13:18:57;25.15;;;15.48;;
40286;SDS011;25998;46.604;13.610;2023-11-21T13:22:09;14.07;;;12.57;;
40286;SDS011;25998;46.604;13.610;2023-11-21T13:25:23;16.63;;;13.45;;
40286;SDS011;25998;46.604;13.610;2023-11-21T13:28:37;12.48;;;10.70;;
40286;SDS011;25998;46.604;13.610;2023-11-21T13:31:50;9.40;;;7.78;;
40286;SDS011;25998;46.604;13.610;2023-11-21T13:35:03;9.90;;;8.73;;
40286;SDS011;25998;46.604;13.610;2023-11-21T13:38:18;10.13;;;8.75;;
40286;SDS011;25998;46.604;13.610;2023-11-21T13:41:43;9.35;;;6.90;;
40286;SDS011;25998;46.604;13.610;2023-11-21T13:44:57;8.75;;;7.15;;
40286;SDS011;25998;46.604;13.610;2023-11-21T13:48:10;8.18;;;7.25;;
40286;SDS011;25998;46.604;13.610;2023-11-21T13:51:24;9.40;;;7.60;;
40286;SDS011;25998;46.604;13.610;2023-11-21T13:54:58;8.15;;;7.35;;
40286;SDS011;25998;46.604;13.610;2023-11-21T13:58:14;9.25;;;7.45;;
40286;SDS011;25998;46.604;13.610;2023-11-21T14:05:05;10.00;;;8.05;;
40286;SDS011;25998;46.604;13.610;2023-11-21T14:08:22;10.07;;;9.07;;
40286;SDS011;25998;46.604;13.610;2023-11-21T14:11:38;12.63;;;10.45;;
40286;SDS011;25998;46.604;13.610;2023-11-21T14:14:49;10.00;;;8.75;;
40286;SDS011;25998;46.604;13.610;2023-11-21T14:18:00;11.32;;;9.90;;
40286;SDS011;25998;46.604;13.610;2023-11-21T14:21:16;11.55;;;10.10;;
40286;SDS011;25998;46.604;13.610;2023-11-21T14:24:27;9.15;;;8.23;;
40286;SDS011;25998;46.604;13.610;2023-11-21T14:27:39;13.05;;;10.77;;
40286;SDS011;25998;46.604;13.610;2023-11-21T14:30:50;12.32;;;10.30;;
40286;SDS011;25998;46.604;13.610;2023-11-21T14:34:03;12.35;;;10.68;;
40286;SDS011;25998;46.604;13.610;2023-11-21T14:37:17;12.43;;;9.95;;
40286;SDS011;25998;46.604;13.610;2023-11-21T14:40:28;11.55;;;9.95;;
40286;SDS011;25998;46.604;13.610;2023-11-21T14:43:43;13.75;;;11.27;;
40286;SDS011;25998;46.604;13.610;2023-11-21T14:46:56;13.25;;;11.15;;
40286;SDS011;25998;46.604;13.610;2023-11-21T14:50:08;10.65;;;9.55;;
40286;SDS011;25998;46.604;13.610;2023-11-21T14:53:38;10.38;;;8.60;;
40286;SDS011;25998;46.604;13.610;2023-11-21T14:57:04;11.75;;;10.10;;
40286;SDS011;25998;46.604;13.610;2023-11-21T15:00:20;13.85;;;9.60;;
40286;SDS011;25998;46.604;13.610;2023-11-21T15:03:50;10.95;;;9.43;;
40286;SDS011;25998;46.604;13.610;2023-11-21T15:07:01;11.45;;;9.50;;
40286;SDS011;25998;46.604;13.610;2023-11-21T15:10:13;10.68;;;9.55;;
40286;SDS011;25998;46.604;13.610;2023-11-21T15:13:25;11.13;;;9.18;;
40286;SDS011;25998;46.604;13.610;2023-11-21T15:16:38;11.23;;;10.13;;
40286;SDS011;25998;46.604;13.610;2023-11-21T15:19:53;11.82;;;9.93;;
40286;SDS011;25998;46.604;13.610;2023-11-21T15:23:04;11.90;;;10.70;;
40286;SDS011;25998;46.604;13.610;2023-11-21T15:26:16;11.07;;;9.70;;
40286;SDS011;25998;46.604;13.610;2023-11-21T15:29:36;10.77;;;9.68;;
40286;SDS011;25998;46.604;13.610;2023-11-21T15:32:51;12.35;;;10.57;;
40286;SDS011;25998;46.604;13.610;2023-11-21T15:36:06;12.45;;;9.93;;
40286;SDS011;25998;46.604;13.610;2023-11-21T15:39:20;12.10;;;10.48;;
40286;SDS011;25998;46.604;13.610;2023-11-21T15:42:38;14.00;;;11.48;;
40286;SDS011;25998;46.604;13.610;2023-11-21T15:45:51;15.32;;;11.50;;
40286;SDS011;25998;46.604;13.610;2023-11-21T15:49:02;14.02;;;11.68;;
40286;SDS011;25998;46.604;13.610;2023-11-21T15:52:22;14.30;;;12.02;;
40286;SDS011;25998;46.604;13.610;2023-11-21T15:55:33;13.02;;;11.43;;
40286;SDS011;25998;46.604;13.610;2023-11-21T15:58:46;13.52;;;11.70;;
40286;SDS011;25998;46.604;13.610;2023-11-21T16:01:57;16.15;;;12.38;;
40286;SDS011;25998;46.604;13.610;2023-11-21T16:05:09;13.80;;;12.10;;
40286;SDS011;25998;46.604;13.610;2023-11-21T16:08:20;14.55;;;13.05;;
40286;SDS011;25998;46.604;13.610;2023-11-21T16:11:31;14.75;;;13.07;;
40286;SDS011;25998;46.604;13.610;2023-11-21T16:14:48;14.82;;;13.25;;
40286;SDS011;25998;46.604;13.610;2023-11-21T16:18:02;14.52;;;12.27;;
40286;SDS011;25998;46.604;13.610;2023-11-21T16:21:15;15.27;;;13.68;;
40286;SDS011;25998;46.604;13.610;2023-11-21T16:24:33;17.27;;;14.25;;
40286;SDS011;25998;46.604;13.610;2023-11-21T16:27:47;17.10;;;14.30;;
40286;SDS011;25998;46.604;13.610;2023-11-21T16:30:58;15.10;;;13.05;;
40286;SDS011;25998;46.604;13.610;2023-11-21T16:34:41;17.48;;;12.80;;
40286;SDS011;25998;46.604;13.610;2023-11-21T16:37:57;15.02;;;12.45;;
40286;SDS011;25998;46.604;13.610;2023-11-21T16:41:08;13.38;;;11.98;;
40286;SDS011;25998;46.604;13.610;2023-11-21T16:44:20;15.85;;;12.50;;
40286;SDS011;25998;46.604;13.610;2023-11-21T16:47:32;17.42;;;11.82;;
40286;SDS011;25998;46.604;13.610;2023-11-21T16:50:43;12.32;;;9.98;;
40286;SDS011;25998;46.604;13.610;2023-11-21T16:53:57;14.93;;;11.10;;
40286;SDS011;25998;46.604;13.610;2023-11-21T16:57:10;15.20;;;10.68;;
40286;SDS011;25998;46.604;13.610;2023-11-21T17:00:22;15.65;;;11.82;;
40286;SDS011;25998;46.604;13.610;2023-11-21T17:03:34;13.63;;;11.20;;
40286;SDS011;25998;46.604;13.610;2023-11-21T17:06:46;13.77;;;11.70;;
40286;SDS011;25998;46.604;13.610;2023-11-21T17:09:59;14.02;;;10.85;;
40286;SDS011;25998;46.604;13.610;2023-11-21T17:13:11;15.05;;;11.18;;
40286;SDS011;25998;46.604;13.610;2023-11-21T17:16:22;13.40;;;10.60;;
40286;SDS011;25998;46.604;13.610;2023-11-21T17:19:33;13.88;;;10.00;;
40286;SDS011;25998;46.604;13.610;2023-11-21T17:22:47;13.45;;;10.70;;
40286;SDS011;25998;46.604;13.610;2023-11-21T17:26:01;15.60;;;11.88;;
40286;SDS011;25998;46.604;13.610;2023-11-21T17:29:18;22.00;;;12.45;;
40286;SDS011;25998;46.604;13.610;2023-11-21T17:32:31;18.15;;;11.55;;
40286;SDS011;25998;46.604;13.610;2023-11-21T17:35:42;19.35;;;13.05;;
40286;SDS011;25998;46.604;13.610;2023-11-21T17:38:58;14.45;;;10.57;;
40286;SDS011;25998;46.604;13.610;2023-11-21T17:42:12;16.45;;;10.95;;
40286;SDS011;25998;46.604;13.610;2023-11-21T17:45:23;18.00;;;11.85;;
40286;SDS011;25998;46.604;13.610;2023-11-21T17:48:35;13.68;;;10.13;;
40286;SDS011;25998;46.604;13.610;2023-11-21T17:51:51;16.88;;;9.98;;
40286;SDS011;25998;46.604;13.610;2023-11-21T17:55:03;15.07;;;11.27;;
40286;SDS011;25998;46.604;13.610;2023-11-21T17:58:20;18.88;;;13.30;;
40286;SDS011;25998;46.604;13.610;2023-11-21T18:01:37;18.10;;;11.90;;
40286;SDS011;25998;46.604;13.610;2023-11-21T18:04:49;17.02;;;11.70;;
40286;SDS011;25998;46.604;13.610;2023-11-21T18:08:03;16.52;;;11.05;;
40286;SDS011;25998;46.604;13.610;2023-11-21T18:11:15;16.42;;;10.63;;
40286;SDS011;25998;46.604;13.610;2023-11-21T18:14:26;18.92;;;12.48;;
40286;SDS011;25998;46.604;13.610;2023-11-21T18:17:37;19.67;;;11.50;;
40286;SDS011;25998;46.604;13.610;2023-11-21T18:20:48;16.58;;;9.75;;
40286;SDS011;25998;46.604;13.610;2023-11-21T18:24:01;18.52;;;9.98;;
40286;SDS011;25998;46.604;13.610;2023-11-21T18:27:14;13.73;;;9.32;;
40286;SDS011;25998;46.604;13.610;2023-11-21T18:30:27;14.93;;;9.50;;
40286;SDS011;25998;46.604;13.610;2023-11-21T18:33:45;15.68;;;8.43;;
40286;SDS011;25998;46.604;13.610;2023-11-21T18:37:00;12.40;;;8.13;;
40286;SDS011;25998;46.604;13.610;2023-11-21T18:40:11;14.95;;;8.00;;
40286;SDS011;25998;46.604;13.610;2023-11-21T18:43:22;10.95;;;7.28;;
40286;SDS011;25998;46.604;13.610;2023-11-21T18:46:37;10.25;;;6.57;;
40286;SDS011;25998;46.604;13.610;2023-11-21T18:49:51;10.10;;;6.35;;
40286;SDS011;25998;46.604;13.610;2023-11-21T18:53:03;11.52;;;6.30;;
40286;SDS011;25998;46.604;13.610;2023-11-21T18:56:20;10.65;;;6.22;;
40286;SDS011;25998;46.604;13.610;2023-11-21T18:59:34;11.20;;;5.78;;
40286;SDS011;25998;46.604;13.610;2023-11-21T19:02:48;8.15;;;6.53;;
40286;SDS011;25998;46.604;13.610;2023-11-21T19:06:01;9.68;;;5.75;;